Time;durP1;ratioP1;P1;durP2;ratioP2;P2;SDS_P1;SDS_P2;PMS_P1;PMS_P2;Temp;Humidity;BMP_temperature;BMP_pressure;BME280_temperature;BME280_humidity;BME280_pressure;Samples;Min_cycle;Max_cycle;Signal;HPM_P1;HPM_P2
2022/08/09 00:01:51;;;;;;;4.93;2.70;;;;;;;14.05;100.00;102017.31;7392288;19;20384;-59
2022/08/09 00:04:24;;;;;;;6.93;2.80;;;;;;;14.05;100.00;102012.09;7391308;19;20937;-59
2022/08/09 00:07:03;;;;;;;5.80;2.77;;;;;;;14.02;100.00;101996.41;7385818;19;20976;-59
2022/08/09 00:09:38;;;;;;;6.30;3.73;;;;;;;14.15;100.00;101988.38;7394000;19;20422;-59
2022/08/09 00:12:09;;;;;;;7.27;4.03;;;;;;;14.14;100.00;101990.91;7384292;19;20736;-59
2022/08/09 00:14:51;;;;;;;5.37;2.93;;;;;;;14.00;100.00;101988.53;7391391;19;20477;-59
2022/08/09 00:17:27;;;;;;;5.53;2.43;;;;;;;13.90;100.00;101984.63;7382021;19;20404;-59
2022/08/09 00:20:17;;;;;;;5.03;2.60;;;;;;;13.74;100.00;101990.78;7392354;19;20410;-59
2022/08/09 00:22:47;;;;;;;4.53;2.40;;;;;;;13.52;100.00;101991.44;7383012;19;20414;-59
2022/08/09 00:25:16;;;;;;;4.33;2.60;;;;;;;13.44;100.00;102022.13;7392407;19;20745;-59
2022/08/09 00:28:02;;;;;;;5.00;2.50;;;;;;;13.48;100.00;102060.41;7382649;19;20411;-59
2022/08/09 00:30:32;;;;;;;3.73;2.63;;;;;;;13.45;100.00;102082.66;7394115;19;20532;-59
2022/08/09 00:33:04;;;;;;;3.27;2.40;;;;;;;13.36;100.00;102091.75;7382892;19;20436;-59
2022/08/09 00:35:34;;;;;;;6.73;3.20;;;;;;;13.38;100.00;102112.53;7390414;19;20379;-59
2022/08/09 00:38:12;;;;;;;3.77;2.53;;;;;;;13.16;100.00;102128.69;7383762;19;20416;-59
2022/08/09 00:40:44;;;;;;;4.13;2.50;;;;;;;13.02;100.00;102162.50;7389528;19;20414;-59
2022/08/09 00:43:21;;;;;;;4.90;2.83;;;;;;;13.12;100.00;102220.03;7382487;19;20418;-59
2022/08/09 00:46:11;;;;;;;5.60;3.23;;;;;;;13.37;100.00;102254.25;7391542;19;20387;-59
2022/08/09 00:49:04;;;;;;;5.47;2.93;;;;;;;13.29;100.00;102263.31;7379698;19;20427;-59
2022/08/09 00:51:33;;;;;;;5.20;2.90;;;;;;;13.27;100.00;102277.00;7392617;19;20917;-59
2022/08/09 00:54:23;;;;;;;6.00;3.00;;;;;;;13.41;100.00;102290.69;7391922;19;20477;-59
2022/08/09 00:57:04;;;;;;;7.20;3.30;;;;;;;13.12;100.00;102271.84;7386036;19;20455;-59
2022/08/09 00:59:39;;;;;;;4.00;2.80;;;;;;;13.15;100.00;102292.75;7392766;19;20433;-59
2022/08/09 01:02:22;;;;;;;4.20;2.93;;;;;;;13.30;100.00;102319.53;7382420;19;20421;-59
2022/08/09 01:04:59;;;;;;;5.50;3.17;;;;;;;13.22;100.00;102323.38;7391464;19;20397;-59
2022/08/09 01:07:36;;;;;;;4.93;3.10;;;;;;;12.90;100.00;102312.09;7384585;19;20962;-59
2022/08/09 01:10:31;;;;;;;6.47;3.00;;;;;;;13.08;100.00;102344.22;7389278;19;20396;-59
2022/08/09 01:13:06;;;;;;;3.97;2.30;;;;;;;13.05;100.00;102354.44;7379020;19;20756;-59
2022/08/09 01:15:40;;;;;;;4.50;2.87;;;;;;;12.89;100.00;102351.75;7395660;19;20380;-59
2022/08/09 01:18:23;;;;;;;4.67;2.57;;;;;;;12.59;100.00;102367.28;7388715;19;20527;-59
2022/08/09 01:21:12;;;;;;;4.07;2.40;;;;;;;12.41;100.00;102409.41;7397438;19;21249;-59
2022/08/09 01:23:49;;;;;;;4.53;2.93;;;;;;;12.35;100.00;102499.63;7389417;19;20501;-59
2022/08/09 01:26:48;;;;;;;6.77;3.80;;;;;;;12.75;100.00;102586.63;7397944;19;20400;-59
2022/08/09 01:29:28;;;;;;;6.97;4.03;;;;;;;12.86;100.00;102611.50;7388130;19;20411;-59
2022/08/09 01:32:20;;;;;;;5.13;3.27;;;;;;;13.09;100.00;102635.34;7389187;19;20423;-59
2022/08/09 01:35:14;;;;;;;6.87;3.73;;;;;;;13.17;100.00;102628.06;7397110;19;20377;-59
2022/08/09 01:38:25;;;;;;;4.07;2.87;;;;;;;13.08;100.00;102613.72;7380425;19;20429;-59
2022/08/09 01:40:58;;;;;;;5.83;3.80;;;;;;;13.16;100.00;102615.88;7393845;19;20403;-59
2022/08/09 01:43:40;;;;;;;5.53;3.37;;;;;;;13.02;100.00;102604.69;7387520;19;21352;-59
2022/08/09 01:46:21;;;;;;;5.87;3.00;;;;;;;13.04;100.00;102609.16;7395584;19;20388;-59
2022/08/09 01:48:55;;;;;;;4.33;2.73;;;;;;;13.02;100.00;102605.56;7385356;19;20425;-59
2022/08/09 01:51:28;;;;;;;7.97;3.10;;;;;;;13.01;100.00;102601.19;7397255;19;20394;-59
2022/08/09 01:54:02;;;;;;;5.43;2.93;;;;;;;12.86;100.00;102606.31;7389417;19;20407;-59
2022/08/09 01:56:33;;;;;;;7.10;3.23;;;;;;;12.90;100.00;102607.41;7395141;19;20403;-59
2022/08/09 01:59:10;;;;;;;6.13;3.90;;;;;;;12.93;100.00;102620.56;7387951;19;20459;-59
2022/08/09 02:01:45;;;;;;;5.00;3.47;;;;;;;12.93;100.00;102633.50;7399633;19;20402;-59
2022/08/09 02:04:29;;;;;;;8.10;3.23;;;;;;;12.67;100.00;102625.00;7396728;19;20429;-59
2022/08/09 02:07:12;;;;;;;5.00;3.40;;;;;;;12.72;100.00;102652.06;7387605;19;20393;-60
2022/08/09 02:10:06;;;;;;;6.30;3.97;;;;;;;12.77;100.00;102667.91;7393659;19;20410;-59
2022/08/09 02:12:36;;;;;;;6.10;3.53;;;;;;;12.76;100.00;102682.56;7384587;19;20435;-59
2022/08/09 02:15:11;;;;;;;5.50;3.60;;;;;;;12.76;100.00;102694.63;7395320;19;20386;-59
2022/08/09 02:17:46;;;;;;;17.50;7.87;;;;;;;12.76;100.00;102711.03;7386931;19;20435;-59
2022/08/09 02:20:40;;;;;;;6.93;4.57;;;;;;;13.13;100.00;102760.81;7394558;19;20412;-59
2022/08/09 02:23:15;;;;;;;32.20;20.70;;;;;;;13.43;100.00;102782.56;7385445;19;20501;-59
2022/08/09 02:25:47;;;;;;;37.67;22.57;;;;;;;13.54;100.00;102775.50;7394893;19;20389;-59
2022/08/09 02:28:27;;;;;;;32.97;19.27;;;;;;;13.31;100.00;102724.78;7371572;19;20421;-59
2022/08/09 02:31:03;;;;;;;7.60;5.07;;;;;;;12.81;100.00;102695.78;7395584;19;20389;-59
2022/08/09 02:33:37;;;;;;;13.70;8.53;;;;;;;12.89;100.00;102714.41;7387717;19;20413;-59
2022/08/09 02:36:39;;;;;;;12.10;8.00;;;;;;;13.02;100.00;102711.78;7397717;19;20385;-59
2022/08/09 02:39:13;;;;;;;7.07;4.50;;;;;;;12.82;100.00;102698.47;7386748;19;20460;-59
2022/08/09 02:42:06;;;;;;;5.90;4.17;;;;;;;12.72;100.00;102688.31;7387890;19;20387;-59
2022/08/09 02:44:38;;;;;;;9.00;5.90;;;;;;;12.71;100.00;102690.84;7396217;19;20388;-59
2022/08/09 02:47:14;;;;;;;5.73;4.70;;;;;;;12.65;100.00;102689.63;7389023;19;20464;-59
2022/08/09 02:49:47;;;;;;;10.97;3.60;;;;;;;12.53;100.00;102688.84;7393342;19;20417;-59
2022/08/09 02:52:33;;;;;;;7.90;3.70;;;;;;;12.26;100.00;102697.50;7387822;19;20420;-59
2022/08/09 02:55:04;;;;;;;8.60;4.80;;;;;;;12.20;100.00;102724.69;7394797;19;20384;-59
2022/08/09 02:57:50;;;;;;;6.80;4.30;;;;;;;12.45;100.00;102757.38;7386070;19;20419;-59
2022/08/09 03:00:40;;;;;;;5.60;3.83;;;;;;;12.21;100.00;102762.69;7392923;19;20757;-59
2022/08/09 03:03:30;;;;;;;6.97;4.17;;;;;;;12.34;100.00;102778.25;7387427;19;20426;-59
2022/08/09 03:06:20;;;;;;;5.70;4.33;;;;;;;12.37;100.00;102818.97;7394229;19;20393;-59
2022/08/09 03:08:51;;;;;;;8.27;4.53;;;;;;;12.52;100.00;102861.41;7385877;19;20434;-59
2022/08/09 03:11:22;;;;;;;10.03;3.90;;;;;;;12.28;100.00;102869.34;7394290;19;20905;-59
2022/08/09 03:14:13;;;;;;;7.83;4.47;;;;;;;12.28;100.00;102895.22;7384925;19;20426;-59
2022/08/09 03:16:45;;;;;;;6.30;4.43;;;;;;;12.21;100.00;102912.78;7393053;19;20387;-59
2022/08/09 03:19:20;;;;;;;7.67;4.53;;;;;;;12.11;100.00;102935.44;7386789;19;20445;-59
2022/08/09 03:22:11;;;;;;;10.10;4.43;;;;;;;12.36;100.00;102970.78;7386485;19;20382;-59
2022/08/09 03:24:54;;;;;;;7.53;4.13;;;;;;;12.36;100.00;102973.38;7393796;19;20407;-59
2022/08/09 03:27:44;;;;;;;6.80;4.27;;;;;;;12.30;100.00;102983.31;7385826;19;20414;-59
2022/08/09 03:30:14;;;;;;;5.90;3.90;;;;;;;12.18;100.00;102980.75;7391529;19;20423;-59
2022/08/09 03:33:04;;;;;;;9.60;4.90;;;;;;;12.00;100.00;103026.91;7384919;19;20423;-59
2022/08/09 03:35:51;;;;;;;7.70;4.40;;;;;;;11.75;100.00;103043.22;7393240;19;20384;-59
2022/08/09 03:38:45;;;;;;;5.90;4.47;;;;;;;11.99;100.00;103056.13;7385849;19;20809;-59
2022/08/09 03:41:15;;;;;;;6.10;4.23;;;;;;;11.93;100.00;103030.72;7393071;19;20728;-59
2022/08/09 03:43:47;;;;;;;5.67;3.77;;;;;;;11.71;100.00;103025.66;7385585;19;20417;-59
2022/08/09 03:46:36;;;;;;;7.40;4.60;;;;;;;11.69;100.00;102975.53;7393728;19;20398;-59
2022/08/09 03:49:07;;;;;;;7.87;4.70;;;;;;;11.73;100.00;102898.28;7384020;19;20419;-58
2022/08/09 03:51:43;;;;;;;7.40;4.77;;;;;;;11.84;100.00;102817.97;7393203;19;20938;-59
2022/08/09 03:54:31;;;;;;;10.70;5.20;;;;;;;11.89;100.00;102762.25;7392447;19;20450;-59
2022/08/09 03:57:08;;;;;;;8.63;5.63;;;;;;;11.90;100.00;102720.13;7385880;19;20453;-59
2022/08/09 03:59:50;;;;;;;8.17;4.87;;;;;;;11.81;100.00;102698.78;7391038;19;20420;-58
2022/08/09 04:02:24;;;;;;;7.43;4.70;;;;;;;11.68;100.00;102686.69;7383495;19;20735;-59
2022/08/09 04:04:57;;;;;;;7.80;4.70;;;;;;;11.74;100.00;102658.66;7392828;19;20387;-59
2022/08/09 04:07:30;;;;;;;20.20;10.13;;;;;;;11.99;100.00;102663.81;7383483;19;20419;-59
2022/08/09 04:10:21;;;;;;;16.73;7.87;;;;;;;11.86;100.00;102641.38;7391048;19;20418;-59
2022/08/09 04:12:59;;;;;;;7.70;5.40;;;;;;;11.82;100.00;102633.31;7385604;19;20746;-58
2022/08/09 04:15:30;;;;;;;10.17;5.60;;;;;;;11.62;100.00;102619.97;7392587;19;20376;-59
2022/08/09 04:18:19;;;;;;;9.90;4.50;;;;;;;11.81;100.00;102614.34;7383639;19;20434;-59
2022/08/09 04:20:50;;;;;;;7.60;5.00;;;;;;;12.09;100.00;102597.16;7390579;19;20777;-59
2022/08/09 04:23:22;;;;;;;10.40;5.10;;;;;;;12.05;100.00;102595.19;7384369;19;20422;-58
2022/08/09 04:25:54;;;;;;;20.30;10.50;;;;;;;11.92;100.00;102594.34;7391915;19;20460;-59
2022/08/09 04:28:25;;;;;;;12.10;5.87;;;;;;;11.84;100.00;102595.56;7386026;19;20426;-59
2022/08/09 04:31:04;;;;;;;8.03;5.97;;;;;;;11.88;100.00;102597.53;7392120;19;20392;-59
2022/08/09 04:33:39;;;;;;;15.27;9.00;;;;;;;12.03;100.00;102587.28;7386975;19;20438;-60
2022/08/09 04:36:23;;;;;;;10.83;6.40;;;;;;;12.19;100.00;102593.50;7392184;19;20403;-60
2022/08/09 04:38:56;;;;;;;12.07;7.23;;;;;;;11.99;100.00;102590.47;7384876;19;20446;-60
2022/08/09 04:41:27;;;;;;;10.87;6.50;;;;;;;11.80;100.00;102598.72;7391607;19;20462;-60
2022/08/09 04:44:02;;;;;;;13.20;7.70;;;;;;;12.19;100.00;102594.38;7383509;19;20945;-60
2022/08/09 04:46:36;;;;;;;10.33;6.40;;;;;;;12.27;100.00;102593.19;7399207;19;20398;-60
2022/08/09 04:49:31;;;;;;;9.90;6.03;;;;;;;12.36;100.00;102597.16;7396504;19;20411;-60
2022/08/09 04:52:21;;;;;;;13.67;6.50;;;;;;;12.42;100.00;102592.38;7390018;19;20430;-60
2022/08/09 04:54:59;;;;;;;9.13;5.80;;;;;;;12.45;100.00;102600.31;7398233;19;20722;-60
2022/08/09 04:57:30;;;;;;;12.17;6.70;;;;;;;12.40;100.00;102606.91;7389937;19;20418;-59
2022/08/09 05:00:21;;;;;;;9.50;6.77;;;;;;;12.36;100.00;102612.69;7395711;19;20429;-60
2022/08/09 05:02:51;;;;;;;10.30;6.30;;;;;;;12.43;100.00;102617.47;7391105;19;20450;-60
2022/08/09 05:05:22;;;;;;;11.90;7.10;;;;;;;12.54;100.00;102619.06;7398988;19;20391;-59
2022/08/09 05:08:11;;;;;;;17.83;7.43;;;;;;;12.75;100.00;102631.56;7387197;19;20415;-60
2022/08/09 05:10:46;;;;;;;9.57;6.30;;;;;;;12.83;100.00;102632.91;7396106;19;20428;-60
2022/08/09 05:13:16;;;;;;;9.13;6.40;;;;;;;12.78;100.00;102634.31;7388965;19;20494;-60
2022/08/09 05:15:45;;;;;;;10.73;6.40;;;;;;;12.77;100.00;102640.31;7399144;19;20768;-60
2022/08/09 05:18:20;;;;;;;12.60;6.60;;;;;;;12.60;100.00;102643.56;7388736;19;20410;-59
2022/08/09 05:21:11;;;;;;;11.47;6.70;;;;;;;12.58;100.00;102655.47;7398255;19;20392;-59
2022/08/09 05:23:54;;;;;;;12.03;6.73;;;;;;;12.87;100.00;102651.25;7389493;19;20412;-60
2022/08/09 05:26:34;;;;;;;12.80;7.00;;;;;;;12.87;100.00;102653.84;7398033;19;20913;-59
2022/08/09 05:29:18;;;;;;;12.50;6.30;;;;;;;13.00;100.00;102660.69;7387064;19;20424;-60
2022/08/09 05:31:51;;;;;;;10.93;5.77;;;;;;;12.98;100.00;102663.19;7397768;19;20391;-60
2022/08/09 05:34:27;;;;;;;10.63;6.43;;;;;;;13.03;100.00;102661.75;7396425;19;20451;-60
2022/08/09 05:37:01;;;;;;;12.00;7.00;;;;;;;13.11;100.00;102670.00;7362818;19;20399;-60
2022/08/09 05:39:36;;;;;;;11.40;6.33;;;;;;;13.23;100.00;102680.25;7395131;19;20419;-60
2022/08/09 05:42:16;;;;;;;11.03;6.30;;;;;;;13.30;100.00;102686.69;7390416;19;20404;-60
2022/08/09 05:44:51;;;;;;;11.87;6.77;;;;;;;13.36;100.00;102690.56;7397489;19;20757;-60
2022/08/09 05:47:21;;;;;;;10.87;6.40;;;;;;;13.64;100.00;102700.03;7386285;19;20923;-60
2022/08/09 05:49:52;;;;;;;17.00;5.97;;;;;;;13.61;100.00;102712.84;7395834;19;20419;-60
2022/08/09 05:52:43;;;;;;;7.50;4.90;;;;;;;13.58;100.00;102720.44;7390385;19;20760;-60
2022/08/09 05:55:22;;;;;;;13.17;7.37;;;;;;;13.69;100.00;102722.78;7397295;19;20390;-60
2022/08/09 05:57:55;;;;;;;9.07;5.30;;;;;;;13.74;100.00;102736.94;7385520;19;20427;-60
2022/08/09 06:00:27;;;;;;;8.33;5.23;;;;;;;13.94;100.00;102745.88;7393761;19;20944;-60
2022/08/09 06:02:58;;;;;;;13.53;6.10;;;;;;;13.94;100.00;102760.59;7388839;19;20971;-60
2022/08/09 06:05:29;;;;;;;9.27;5.43;;;;;;;14.01;100.00;102771.41;7396638;19;20972;-60
2022/08/09 06:08:18;;;;;;;8.10;4.87;;;;;;;14.11;100.00;102778.03;7387866;19;20421;-60
2022/08/09 06:10:54;;;;;;;9.00;5.33;;;;;;;14.40;100.00;102791.84;7394410;19;20800;-60
2022/08/09 06:13:27;;;;;;;10.80;6.10;;;;;;;14.41;100.00;102804.00;7389291;19;20434;-60
2022/08/09 06:16:02;;;;;;;73.40;42.93;;;;;;;14.56;100.00;102816.13;7396590;19;20844;-59
2022/08/09 06:18:34;;;;;;;13.20;8.00;;;;;;;14.78;100.00;102840.78;7386900;19;20415;-60
2022/08/09 06:21:06;;;;;;;17.53;10.80;;;;;;;14.87;100.00;102851.69;7396025;19;20386;-60
2022/08/09 06:23:36;;;;;;;17.90;10.80;;;;;;;15.02;100.00;102868.97;7386423;19;20415;-60
2022/08/09 06:26:26;;;;;;;11.40;7.43;;;;;;;14.99;100.00;102883.56;7395906;19;20374;-60
2022/08/09 06:28:59;;;;;;;19.10;11.80;;;;;;;15.20;100.00;102896.03;7384289;19;20459;-60
2022/08/09 06:31:34;;;;;;;13.83;9.03;;;;;;;15.25;100.00;102904.06;7394198;19;20384;-60
2022/08/09 06:34:24;;;;;;;9.20;5.30;;;;;;;15.24;100.00;102923.97;7393760;19;20449;-60
2022/08/09 06:36:59;;;;;;;25.23;14.47;;;;;;;15.69;100.00;102942.91;7389378;19;20399;-61
2022/08/09 06:39:30;;;;;;;24.43;15.37;;;;;;;16.09;100.00;102965.06;7396361;19;20498;-60
2022/08/09 06:42:21;;;;;;;18.27;11.00;;;;;;;16.06;100.00;103017.84;7388223;19;20409;-60
2022/08/09 06:45:01;;;;;;;13.10;6.50;;;;;;;16.03;100.00;103056.72;7395238;19;20391;-60
2022/08/09 06:47:51;;;;;;;19.37;7.40;;;;;;;16.17;100.00;103097.47;7387372;19;20424;-60
2022/08/09 06:50:30;;;;;;;12.47;8.07;;;;;;;16.23;100.00;103125.53;7393351;19;20498;-60
2022/08/09 06:53:00;;;;;;;11.97;6.47;;;;;;;16.29;100.00;103145.81;7390230;19;20423;-60
2022/08/09 06:55:31;;;;;;;20.57;10.40;;;;;;;16.47;100.00;103167.69;7395081;19;20391;-60
2022/08/09 06:58:02;;;;;;;13.50;6.87;;;;;;;16.54;100.00;103178.44;7386643;19;20440;-60
2022/08/09 07:00:36;;;;;;;47.90;27.47;;;;;;;16.62;100.00;103194.53;7392967;19;21031;-61
2022/08/09 07:03:26;;;;;;;48.73;33.17;;;;;;;16.86;100.00;103208.91;7379999;19;20414;-60
2022/08/09 07:05:59;;;;;;;23.77;14.03;;;;;;;16.88;100.00;103227.25;7394671;19;20478;-60
2022/08/09 07:08:34;;;;;;;12.40;6.33;;;;;;;16.85;100.00;103243.63;7385965;19;20790;-60
2022/08/09 07:11:08;;;;;;;23.67;14.03;;;;;;;17.03;100.00;103242.88;7394607;19;20803;-60
2022/08/09 07:13:41;;;;;;;10.40;6.60;;;;;;;17.00;100.00;103263.53;7384665;19;20423;-60
2022/08/09 07:16:33;;;;;;;9.70;6.20;;;;;;;16.96;100.00;103267.66;7394623;19;20454;-60
2022/08/09 07:19:17;;;;;;;19.33;11.97;;;;;;;17.11;100.00;103257.22;7383144;19;20416;-60
2022/08/09 07:21:52;;;;;;;14.40;10.13;;;;;;;17.34;100.00;103239.28;7394129;19;20793;-60
2022/08/09 07:24:29;;;;;;;28.57;19.90;;;;;;;17.55;100.00;103202.09;7385755;19;20858;-60
2022/08/09 07:27:10;;;;;;;6.93;4.87;;;;;;;17.50;100.00;103140.94;7380375;19;20385;-60
2022/08/09 07:30:00;;;;;;;10.47;4.47;;;;;;;17.48;100.00;103059.97;7392074;19;20418;-60
2022/08/09 07:32:33;;;;;;;28.23;10.77;;;;;;;17.48;100.00;103006.91;7387303;19;20422;-60
2022/08/09 07:35:05;;;;;;;13.37;6.00;;;;;;;17.49;100.00;102973.03;7393711;19;20399;-60
2022/08/09 07:37:41;;;;;;;9.63;4.70;;;;;;;17.57;100.00;102915.09;7385697;19;20777;-61
2022/08/09 07:40:14;;;;;;;6.47;3.20;;;;;;;17.65;100.00;102835.44;7391690;19;20478;-60
2022/08/09 07:42:51;;;;;;;12.47;6.70;;;;;;;17.75;100.00;102781.94;7382367;19;20490;-60
2022/08/09 07:45:24;;;;;;;8.60;4.90;;;;;;;17.79;100.00;102747.31;7393452;19;20397;-61
2022/08/09 07:48:12;;;;;;;10.53;3.63;;;;;;;17.86;100.00;102715.41;7384671;19;20437;-60
2022/08/09 07:50:59;;;;;;;9.57;3.93;;;;;;;17.85;100.00;102658.81;7393123;19;20401;-60
2022/08/09 07:53:50;;;;;;;5.00;2.80;;;;;;;17.85;100.00;102617.03;7386532;19;20748;-60
2022/08/09 07:56:37;;;;;;;4.40;3.10;;;;;;;17.97;100.00;102593.13;7392512;19;20393;-60
2022/08/09 07:59:17;;;;;;;7.33;3.77;;;;;;;18.04;100.00;102566.44;7383738;19;20426;-60
2022/08/09 08:02:07;;;;;;;5.70;3.00;;;;;;;18.15;100.00;102556.44;7385354;19;20391;-59
2022/08/09 08:04:40;;;;;;;8.70;2.93;;;;;;;18.27;100.00;102547.31;7392690;19;20413;-60
2022/08/09 08:07:17;;;;;;;6.83;4.10;;;;;;;18.39;100.00;102511.19;7385780;19;20385;-60
2022/08/09 08:10:08;;;;;;;6.80;2.90;;;;;;;18.45;100.00;102430.41;7390684;19;20847;-60
2022/08/09 08:12:40;;;;;;;11.03;4.50;;;;;;;18.52;100.00;102417.56;7383842;19;20414;-60
2022/08/09 08:15:15;;;;;;;9.97;3.13;;;;;;;18.56;100.00;102435.13;7392243;19;20388;-60
2022/08/09 08:17:46;;;;;;;3.77;2.80;;;;;;;18.63;100.00;102422.31;7383699;19;20427;-60
2022/08/09 08:20:28;;;;;;;8.73;3.03;;;;;;;18.68;100.00;102385.91;7396709;19;20445;-60
2022/08/09 08:23:03;;;;;;;4.00;2.13;;;;;;;18.77;100.00;102364.41;7391725;19;20407;-60
2022/08/09 08:25:47;;;;;;;3.87;2.50;;;;;;;18.94;100.00;102349.28;7401167;19;20382;-60
2022/08/09 08:28:22;;;;;;;6.93;3.67;;;;;;;19.00;100.00;102294.56;7392513;19;20771;-60
2022/08/09 08:31:01;;;;;;;7.53;2.33;;;;;;;19.09;100.00;102246.00;7399590;19;20400;-60
2022/08/09 08:33:44;;;;;;;98.07;32.80;;;;;;;19.06;100.00;102204.09;7390734;19;20414;-60
2022/08/09 08:36:27;;;;;;;6.90;2.83;;;;;;;19.16;100.00;102206.09;7399768;19;20402;-60
2022/08/09 08:38:59;;;;;;;5.10;1.90;;;;;;;19.29;100.00;102176.84;7389120;19;20745;-60
2022/08/09 08:41:29;;;;;;;5.10;3.20;;;;;;;19.35;100.00;102136.88;7397182;19;20501;-60
2022/08/09 08:44:20;;;;;;;5.53;2.60;;;;;;;19.45;100.00;102105.72;7387366;19;20438;-60
2022/08/09 08:46:58;;;;;;;5.57;2.70;;;;;;;19.62;100.00;102074.75;7395655;19;20415;-63
2022/08/09 08:49:52;;;;;;;4.83;2.17;;;;;;;19.73;100.00;102046.22;7393378;19;20456;-60
2022/08/09 08:52:35;;;;;;;4.33;2.00;;;;;;;19.53;100.00;101974.22;7390033;19;20410;-60
2022/08/09 08:55:24;;;;;;;9.60;4.73;;;;;;;19.40;100.00;102008.78;7396866;19;21110;-60
2022/08/09 08:57:55;;;;;;;3.67;2.20;;;;;;;19.66;100.00;102029.47;7390718;19;20592;-60
2022/08/09 09:00:27;;;;;;;4.87;1.90;;;;;;;19.75;100.00;102000.03;7394586;19;20415;-60
2022/08/09 09:03:03;;;;;;;4.30;1.80;;;;;;;19.76;100.00;101963.41;7391333;19;20430;-60
2022/08/09 09:05:46;;;;;;;6.93;2.10;;;;;;;20.02;100.00;101926.47;7397433;19;20387;-60
2022/08/09 09:08:38;;;;;;;3.77;2.20;;;;;;;20.44;100.00;101944.75;7387946;19;20419;-60
2022/08/09 09:11:11;;;;;;;4.47;2.10;;;;;;;20.64;100.00;101854.28;7397751;19;20393;-60
2022/08/09 09:13:46;;;;;;;2.93;1.57;;;;;;;20.77;100.00;101791.56;7388847;19;21254;-60
2022/08/09 09:16:29;;;;;;;3.60;1.83;;;;;;;20.96;100.00;101732.41;7397451;19;20478;-60
2022/08/09 09:19:01;;;;;;;3.33;1.80;;;;;;;20.89;100.00;101693.84;7389171;19;20419;-60
2022/08/09 09:22:01;;;;;;;6.63;3.20;;;;;;;21.01;100.00;101636.31;7397783;19;20380;-60
2022/08/09 09:24:37;;;;;;;4.33;2.23;;;;;;;21.10;100.00;101611.03;7396773;19;20499;-60
2022/08/09 09:27:13;;;;;;;4.83;2.60;;;;;;;21.02;100.00;101593.47;7390834;19;20906;-60
2022/08/09 09:30:11;;;;;;;6.20;2.93;;;;;;;20.88;100.00;101582.81;7395258;19;20423;-60
2022/08/09 09:33:06;;;;;;;10.40;3.67;;;;;;;20.77;100.00;101576.56;7388184;19;20416;-60
2022/08/09 09:35:57;;;;;;;6.40;4.00;;;;;;;20.75;100.00;101575.63;7397460;19;20401;-60
2022/08/09 09:38:42;;;;;;;7.20;3.10;;;;;;;20.58;100.00;101573.69;7387977;19;20422;-60
2022/08/09 09:41:29;;;;;;;8.30;3.80;;;;;;;20.37;100.00;101566.41;7396562;19;20913;-60
2022/08/09 09:44:03;;;;;;;5.57;2.60;;;;;;;20.35;100.00;101563.78;7389231;19;20415;-60
2022/08/09 09:46:43;;;;;;;5.30;1.80;;;;;;;20.45;100.00;101542.94;7397170;19;20415;-60
2022/08/09 09:49:22;;;;;;;3.97;1.90;;;;;;;20.57;100.00;101543.09;7388168;19;20426;-60
2022/08/09 09:52:13;;;;;;;4.87;2.10;;;;;;;20.86;100.00;101528.63;7388325;19;20914;-60
2022/08/09 09:55:04;;;;;;;6.70;2.30;;;;;;;21.06;100.00;101527.94;7396730;19;20380;-60
2022/08/09 09:58:03;;;;;;;4.70;2.00;;;;;;;21.07;100.00;101548.06;7390340;19;20418;-59
2022/08/09 10:00:48;;;;;;;10.97;5.20;;;;;;;21.21;100.00;101535.09;7394335;19;20454;-60
2022/08/09 10:03:42;;;;;;;7.53;2.77;;;;;;;21.22;100.00;101552.59;7389444;19;20945;-60
2022/08/09 10:06:13;;;;;;;6.43;3.20;;;;;;;21.21;100.00;101553.47;7396433;19;20391;-60
2022/08/09 10:08:43;;;;;;;4.90;1.63;;;;;;;21.14;100.00;101566.53;7388869;19;20418;-60
2022/08/09 10:11:28;;;;;;;8.37;5.03;;;;;;;21.05;100.00;101561.16;7395730;19;20387;-60
2022/08/09 10:14:28;;;;;;;4.47;1.40;;;;;;;21.14;100.00;101566.53;7385982;19;20438;-60
2022/08/09 10:17:11;;;;;;;6.97;1.83;;;;;;;21.09;100.00;101594.44;7390643;19;20395;-60
2022/08/09 10:20:01;;;;;;;4.33;1.60;;;;;;;21.06;100.00;101573.41;7394220;19;20418;-60
2022/08/09 10:22:33;;;;;;;2.37;1.33;;;;;;;20.97;100.00;101589.06;7388091;19;20412;-60
2022/08/09 10:25:05;;;;;;;3.70;1.80;;;;;;;21.02;100.00;101563.75;7397666;19;20399;-60
2022/08/09 10:27:39;;;;;;;3.27;1.57;;;;;;;21.02;100.00;101555.91;7388648;19;20407;-60
2022/08/09 10:30:29;;;;;;;4.17;1.40;;;;;;;21.01;100.00;101572.47;7393267;19;20435;-60
2022/08/09 10:33:18;;;;;;;2.90;1.20;;;;;;;20.85;100.00;101603.78;7388963;19;20412;-59
2022/08/09 10:36:10;;;;;;;3.00;1.30;;;;;;;20.99;100.00;101703.63;7395675;19;20379;-60
2022/08/09 10:38:42;;;;;;;4.40;2.03;;;;;;;21.05;100.00;101713.28;7389908;19;20415;-59
2022/08/09 10:41:28;;;;;;;3.67;1.60;;;;;;;21.24;100.00;101730.19;7392601;19;20854;-60
2022/08/09 10:43:59;;;;;;;5.80;1.37;;;;;;;21.55;100.00;101716.53;7385718;19;20785;-60
2022/08/09 10:46:55;;;;;;;6.37;1.90;;;;;;;22.05;100.00;101761.72;7395422;19;20414;-60
2022/08/09 10:49:32;;;;;;;3.90;1.43;;;;;;;22.36;100.00;101835.59;7397361;19;20777;-60
2022/08/09 10:52:31;;;;;;;4.80;2.40;;;;;;;22.26;100.00;101798.72;7387233;19;20457;-60
2022/08/09 10:55:04;;;;;;;3.80;1.57;;;;;;;21.99;100.00;101828.19;7395364;19;20383;-60
2022/08/09 10:57:37;;;;;;;6.13;3.30;;;;;;;21.91;100.00;101843.91;7384701;19;20412;-60
2022/08/09 11:00:37;;;;;;;3.90;1.47;;;;;;;21.66;100.00;101890.81;7392582;19;20941;-60
2022/08/09 11:03:29;;;;;;;9.10;3.17;;;;;;;21.51;100.00;101893.22;7388103;19;20411;-60
2022/08/09 11:06:23;;;;;;;4.97;1.67;;;;;;;21.40;100.00;101880.84;7395308;19;20380;-60
2022/08/09 11:08:53;;;;;;;4.73;1.80;;;;;;;21.41;100.00;101879.97;7387654;19;20774;-60
2022/08/09 11:12:16;;;;;;;4.43;1.30;;;;;;;21.36;100.00;101884.28;7395261;19;20395;-60
2022/08/09 11:14:49;;;;;;;7.70;3.23;;;;;;;21.32;100.00;101869.34;7394466;19;20418;-60
2022/08/09 11:17:48;;;;;;;7.07;3.03;;;;;;;21.33;100.00;101902.59;7386291;19;20534;-60
2022/08/09 11:20:47;;;;;;;3.20;1.40;;;;;;;21.31;100.00;101899.06;7392880;19;20416;-60
2022/08/09 11:23:18;;;;;;;4.27;2.00;;;;;;;21.36;100.00;101854.50;7387941;19;20442;-59
2022/08/09 11:25:58;;;;;;;5.40;1.67;;;;;;;21.47;100.00;101921.19;7394392;19;20390;-60
2022/08/09 11:28:41;;;;;;;11.97;6.20;;;;;;;21.61;100.00;101903.00;7386265;19;20399;-59
2022/08/09 11:31:43;;;;;;;2.40;1.10;;;;;;;21.64;100.00;101981.81;7393949;19;21018;-59
2022/08/09 11:34:26;;;;;;;4.63;1.40;;;;;;;21.67;100.00;101992.38;7385043;19;20436;-59
2022/08/09 11:37:00;;;;;;;2.90;1.17;;;;;;;22.07;100.00;102030.59;7394070;19;20455;-59
2022/08/09 11:39:30;;;;;;;7.27;1.50;;;;;;;22.42;100.00;102051.25;7391167;19;20402;-59
2022/08/09 11:42:09;;;;;;;6.90;1.90;;;;;;;22.54;100.00;102086.47;7386649;19;20404;-59
2022/08/09 11:44:47;;;;;;;6.13;1.40;;;;;;;22.84;100.00;102098.22;7393541;19;20752;-60
2022/08/09 11:47:17;;;;;;;3.00;1.40;;;;;;;22.77;100.00;102119.19;7385478;19;20401;-60
2022/08/09 11:50:03;;;;;;;5.30;1.83;;;;;;;23.03;100.00;102113.34;7392199;19;20414;-60
2022/08/09 11:53:23;;;;;;;5.03;2.23;;;;;;;23.35;100.00;102132.13;7385709;19;20777;-60
2022/08/09 11:56:28;;;;;;;5.03;2.50;;;;;;;23.39;100.00;102152.38;7393412;19;20394;-60
2022/08/09 11:59:13;;;;;;;4.83;1.77;;;;;;;23.69;100.00;102157.03;7382999;19;20491;-60
2022/08/09 12:01:44;;;;;;;5.10;1.30;;;;;;;23.82;100.00;102162.41;7392746;19;20446;-60
2022/08/09 12:04:33;;;;;;;5.57;2.33;;;;;;;24.11;100.00;102165.31;7394869;19;20438;-60
2022/08/09 12:07:07;;;;;;;8.27;4.93;;;;;;;24.01;100.00;102179.28;7387401;19;20495;-60
2022/08/09 12:09:42;;;;;;;11.40;8.20;;;;;;;23.78;100.00;102195.75;7393231;19;20439;-61
2022/08/09 12:12:19;;;;;;;8.30;3.30;;;;;;;23.89;100.00;102181.81;7385101;19;20475;-61
2022/08/09 12:15:00;;;;;;;5.03;2.33;;;;;;;24.00;100.00;102178.38;7395946;19;20483;-60